SARM/MCS METAR and TAF weather

Enter ICAO airport designator
Station Type Date Time Source
SARM METAR 2022/01/17 23:15 UTC NOAA

SARM 172315Z 09006KT 4000 -TSRA SCT023 SCT033 FEW045CB 30/21 Q1005


Station Type Date Time Source
SARM Decoded METAR 2022/01/17 23:15 UTC NOAA

Monte Caseros Aerodrome, Argentina (SARM) 30-16S 057-39W 54M
Jan 17, 2022 - 06:15 PM EST / 2022.01.17 2315 UTC
Wind: from the E (090 degrees) at 7 MPH (6 KT):0
Visibility: 2 mile(s):0
Sky conditions: partly cloudy
Weather: light rain with thunder; Cumulonimbus clouds observed
Temperature: 86 F (30 C)
Dew Point: 69 F (21 C)
Relative Humidity: 58%
Pressure (altimeter): 29.68 in. Hg (1005 hPa)
ob: SARM 172315Z 09006KT 4000 -TSRA SCT023 SCT033 FEW045CB 30/21 Q1005
cycle: 23

Station Type Date Time Source
SARM TAF UTC NOAA

Error!

Example: see airport list